createdAt,value
2017-10-22T00:01:07.818Z,76.40
2017-10-22T00:03:36.679Z,76.70
2017-10-22T00:06:04.751Z,78.00
2017-10-22T00:08:33.618Z,79.60
2017-10-22T00:11:02.850Z,79.40
2017-10-22T00:13:32.459Z,77.40
2017-10-22T00:16:01.686Z,78.00
2017-10-22T00:18:30.527Z,79.20
2017-10-22T00:20:58.618Z,79.40
2017-10-22T00:23:26.710Z,76.80
2017-10-22T00:25:55.566Z,77.50
2017-10-22T00:28:23.647Z,78.50
2017-10-22T00:30:51.742Z,77.80
2017-10-22T00:33:20.610Z,79.60
2017-10-22T00:35:48.683Z,77.60
2017-10-22T00:38:16.758Z,77.00
2017-10-22T00:40:44.854Z,76.70
2017-10-22T00:43:13.699Z,75.90
2017-10-22T00:45:41.798Z,76.10
2017-10-22T00:48:09.875Z,75.40
2017-10-22T00:50:37.976Z,74.40
2017-10-22T00:53:06.054Z,73.30
2017-10-22T00:55:34.131Z,74.50
2017-10-22T00:58:02.226Z,73.80
2017-10-22T01:00:30.307Z,74.60
2017-10-22T01:02:58.410Z,74.90
2017-10-22T01:05:27.626Z,74.30
2017-10-22T01:07:56.479Z,73.70
2017-10-22T01:10:24.586Z,75.20
2017-10-22T01:12:53.432Z,76.80
2017-10-22T01:15:21.506Z,75.70
2017-10-22T01:17:49.602Z,75.80
2017-10-22T01:20:17.685Z,76.60
2017-10-22T01:22:45.777Z,76.80
2017-10-22T01:25:13.849Z,76.90
2017-10-22T01:27:41.962Z,75.70
2017-10-22T01:30:10.043Z,76.20
2017-10-22T01:32:38.122Z,75.60
2017-10-22T01:35:06.218Z,75.80
2017-10-22T01:37:34.691Z,76.10
2017-10-22T01:40:02.793Z,75.20
2017-10-22T01:42:31.630Z,75.40
2017-10-22T01:45:00.469Z,74.90
2017-10-22T01:47:29.327Z,75.20
2017-10-22T01:49:57.422Z,75.20
2017-10-22T01:52:25.919Z,74.50
2017-10-22T01:54:53.990Z,73.60
2017-10-22T01:57:22.090Z,71.70
2017-10-22T01:59:50.175Z,72.00
2017-10-22T02:02:18.274Z,69.90
2017-10-22T02:04:46.351Z,69.80
2017-10-22T02:07:15.215Z,69.80
2017-10-22T02:09:43.318Z,70.20
2017-10-22T02:12:12.164Z,71.20
2017-10-22T02:17:10.380Z,70.00
2017-10-22T02:19:38.458Z,70.20
2017-10-22T02:22:06.559Z,70.30
2017-10-22T02:24:35.402Z,70.60
2017-10-22T02:27:03.515Z,69.80
2017-10-22T02:29:32.364Z,70.90
2017-10-22T02:34:29.803Z,69.50
2017-10-22T02:36:57.896Z,69.50
2017-10-22T02:39:25.992Z,68.80
2017-10-22T02:41:54.865Z,68.50
2017-10-22T02:44:22.951Z,69.00
2017-10-22T02:46:51.035Z,68.50
2017-10-22T02:49:19.533Z,68.10
2017-10-22T02:51:48.387Z,69.20
2017-10-22T02:54:17.255Z,68.80
2017-10-22T02:56:45.355Z,68.20
2017-10-22T02:59:13.451Z,68.20
2017-10-22T03:01:41.542Z,67.60
2017-10-22T03:04:11.131Z,67.10
2017-10-22T03:06:39.232Z,66.10
2017-10-22T03:09:07.320Z,66.30
2017-10-22T03:11:35.395Z,65.90
2017-10-22T03:14:03.494Z,65.30
2017-10-22T03:16:31.580Z,64.90
2017-10-22T03:18:59.684Z,64.10
2017-10-22T03:21:28.522Z,63.60
2017-10-22T03:23:56.607Z,63.20
2017-10-22T03:26:24.694Z,62.80
2017-10-22T03:28:52.766Z,62.50
2017-10-22T03:31:20.870Z,63.10
2017-10-22T03:33:49.739Z,63.90
2017-10-22T03:36:17.814Z,62.80
2017-10-22T03:38:47.038Z,61.90
2017-10-22T03:41:15.131Z,61.40
2017-10-22T03:43:43.211Z,61.40
2017-10-22T03:46:11.320Z,61.40
2017-10-22T03:48:39.399Z,60.00
2017-10-22T03:51:07.491Z,61.30
2017-10-22T03:53:36.355Z,60.20
2017-10-22T03:56:04.431Z,60.20
2017-10-22T03:58:32.506Z,59.80
2017-10-22T04:01:01.771Z,59.50
2017-10-22T04:03:29.859Z,58.80
2017-10-22T04:05:59.444Z,59.20
2017-10-22T04:08:27.543Z,59.20
2017-10-22T04:10:55.631Z,59.30
2017-10-22T04:13:23.730Z,60.60
2017-10-22T04:15:52.568Z,60.10
2017-10-22T04:18:21.067Z,59.80
2017-10-22T04:20:49.138Z,60.00
2017-10-22T04:23:17.623Z,60.10
2017-10-22T04:25:45.734Z,60.60
2017-10-22T04:28:13.811Z,60.90
2017-10-22T04:30:41.892Z,61.70
2017-10-22T04:33:09.982Z,61.60
2017-10-22T04:35:38.062Z,61.50
2017-10-22T04:38:06.165Z,62.40
2017-10-22T04:40:35.378Z,61.90
2017-10-22T04:43:03.874Z,62.50
2017-10-22T04:45:32.731Z,62.50
2017-10-22T04:48:01.607Z,62.20
2017-10-22T04:50:29.683Z,62.20
2017-10-22T04:52:57.750Z,62.20
2017-10-22T04:55:25.850Z,61.80
2017-10-22T04:57:54.701Z,62.40
2017-10-22T05:00:22.795Z,62.60
2017-10-22T05:02:50.903Z,62.60
2017-10-22T05:05:18.988Z,62.20
2017-10-22T05:07:47.855Z,61.70
2017-10-22T05:10:16.700Z,61.70
2017-10-22T05:12:44.806Z,60.90
2017-10-22T05:15:13.657Z,60.70
2017-10-22T05:17:41.754Z,59.60
2017-10-22T05:20:09.829Z,59.70
2017-10-22T05:22:37.922Z,60.20
2017-10-22T05:25:06.771Z,60.20
2017-10-22T05:27:35.640Z,60.30
2017-10-22T05:30:03.725Z,59.90
2017-10-22T05:32:33.222Z,58.90
2017-10-22T05:35:01.308Z,58.60
2017-10-22T05:37:30.539Z,58.50
2017-10-22T05:39:59.399Z,60.00
2017-10-22T05:42:27.470Z,58.40
2017-10-22T05:44:55.554Z,58.40
2017-10-22T05:47:23.654Z,58.40
2017-10-22T05:49:52.494Z,58.20
2017-10-22T05:52:20.579Z,56.70
2017-10-22T05:57:18.035Z,57.00
2017-10-22T05:59:46.106Z,56.90
2017-10-22T06:02:14.211Z,56.30
2017-10-22T06:04:42.287Z,56.20
2017-10-22T06:07:10.394Z,55.80
2017-10-22T06:09:38.488Z,55.60
2017-10-22T06:12:06.566Z,54.50
2017-10-22T06:14:34.667Z,54.00
2017-10-22T06:17:02.742Z,54.80
2017-10-22T06:19:30.846Z,54.30
2017-10-22T06:21:59.690Z,55.30
2017-10-22T06:24:27.772Z,53.40
2017-10-22T06:26:55.883Z,53.30
2017-10-22T06:29:24.743Z,54.40
2017-10-22T06:31:52.831Z,51.70
2017-10-22T06:34:21.698Z,53.10
2017-10-22T06:36:49.799Z,52.40
2017-10-22T06:39:19.014Z,51.50
2017-10-22T06:41:47.879Z,51.50
2017-10-22T06:44:16.746Z,51.30
2017-10-22T06:46:44.836Z,51.90
2017-10-22T06:49:12.938Z,51.50
2017-10-22T06:51:41.023Z,51.70
2017-10-22T06:54:09.102Z,52.00
2017-10-22T06:56:38.339Z,51.70
2017-10-22T06:59:06.427Z,50.70
2017-10-22T07:01:34.513Z,50.30
2017-10-22T07:04:04.110Z,49.50
2017-10-22T07:06:32.587Z,50.30
2017-10-22T07:09:01.090Z,49.90
2017-10-22T07:11:30.710Z,48.90
2017-10-22T07:13:58.796Z,48.00
2017-10-22T07:16:27.638Z,49.10
2017-10-22T07:18:55.758Z,49.40
2017-10-22T07:21:23.823Z,48.90
2017-10-22T07:23:51.924Z,48.70
2017-10-22T07:26:20.027Z,49.20
2017-10-22T07:28:48.119Z,48.70
2017-10-22T07:31:16.958Z,49.90
2017-10-22T07:33:45.059Z,49.40
2017-10-22T07:36:13.139Z,49.90
2017-10-22T07:38:42.018Z,51.30
2017-10-22T07:41:10.103Z,50.30
2017-10-22T07:43:38.223Z,50.70
2017-10-22T07:46:06.727Z,50.80
2017-10-22T07:48:34.816Z,49.10
2017-10-22T07:51:03.319Z,49.20
2017-10-22T07:53:32.964Z,49.00
2017-10-22T07:56:01.047Z,49.00
2017-10-22T07:58:29.138Z,48.80
2017-10-22T08:00:57.214Z,48.90
2017-10-22T08:03:25.310Z,48.80
2017-10-22T08:05:54.159Z,49.30
2017-10-22T08:08:22.256Z,48.20
2017-10-22T08:10:51.843Z,48.00
2017-10-22T08:13:19.946Z,48.00
2017-10-22T08:18:17.371Z,48.50
2017-10-22T08:20:45.471Z,48.30
2017-10-22T08:23:13.551Z,48.90
2017-10-22T08:25:41.631Z,49.00
2017-10-22T08:28:09.731Z,48.30
2017-10-22T08:30:38.203Z,48.90
2017-10-22T08:33:07.066Z,49.10
2017-10-22T08:35:35.175Z,48.50
2017-10-22T08:38:03.642Z,48.20
2017-10-22T08:40:32.484Z,48.70
2017-10-22T08:43:00.583Z,48.50
2017-10-22T08:45:28.731Z,48.60
2017-10-22T08:47:56.778Z,47.80
2017-10-22T08:50:24.859Z,48.70
2017-10-22T08:52:52.959Z,48.00
2017-10-22T08:55:21.066Z,48.20
2017-10-22T08:57:49.910Z,49.40
2017-10-22T09:02:48.131Z,49.00
2017-10-22T09:05:16.602Z,48.50
2017-10-22T09:07:44.708Z,48.60
2017-10-22T09:10:13.555Z,49.60
2017-10-22T09:12:41.667Z,49.60
2017-10-22T09:15:10.511Z,50.60
2017-10-22T09:17:39.743Z,49.60
2017-10-22T09:20:07.856Z,50.10
2017-10-22T09:22:35.938Z,49.90
2017-10-22T09:25:04.040Z,51.00
2017-10-22T09:27:32.147Z,50.00
2017-10-22T09:30:01.019Z,51.70
2017-10-22T09:32:29.496Z,50.30
2017-10-22T09:34:57.604Z,50.90
2017-10-22T09:37:26.473Z,51.50
2017-10-22T09:39:54.590Z,51.50
2017-10-22T09:42:23.151Z,52.00
2017-10-22T09:44:52.003Z,52.00
2017-10-22T09:47:20.126Z,52.20
2017-10-22T09:49:48.214Z,52.50
2017-10-22T09:52:16.319Z,53.00
2017-10-22T09:54:44.399Z,53.30
2017-10-22T09:57:12.508Z,53.50
2017-10-22T09:59:40.987Z,52.90
2017-10-22T10:02:09.505Z,52.60
2017-10-22T10:04:37.571Z,53.80
2017-10-22T10:07:06.795Z,54.30
2017-10-22T10:09:34.895Z,54.00
2017-10-22T10:12:03.762Z,54.50
2017-10-22T10:14:32.251Z,54.00
2017-10-22T10:17:01.471Z,54.90
2017-10-22T10:19:29.972Z,54.40
2017-10-22T10:21:58.810Z,56.10
2017-10-22T10:24:26.933Z,56.40
2017-10-22T10:26:55.439Z,57.20
2017-10-22T10:29:23.550Z,55.70
2017-10-22T10:31:51.634Z,58.20
2017-10-22T10:34:19.708Z,57.30
2017-10-22T10:39:17.153Z,57.40
2017-10-22T10:41:45.650Z,58.10
2017-10-22T10:44:15.283Z,57.00
2017-10-22T10:46:44.939Z,54.30
2017-10-22T10:49:13.015Z,55.30
2017-10-22T10:51:41.865Z,54.20
2017-10-22T10:56:39.306Z,54.60
2017-10-22T10:59:07.786Z,53.50
2017-10-22T11:01:35.903Z,54.10
2017-10-22T11:04:04.383Z,52.40
2017-10-22T11:06:32.499Z,51.50
2017-10-22T11:09:01.347Z,53.10
2017-10-22T11:11:29.426Z,53.30
2017-10-22T11:13:57.932Z,52.60
2017-10-22T11:23:54.483Z,58.10
2017-10-22T11:26:23.359Z,58.50
2017-10-22T11:28:52.216Z,59.60
2017-10-22T11:31:20.406Z,59.00
2017-10-22T11:33:49.258Z,60.40
2017-10-22T11:36:17.336Z,60.80
2017-10-22T11:38:45.498Z,62.80
2017-10-22T11:41:14.735Z,65.10
2017-10-22T11:43:42.820Z,65.20
2017-10-22T11:46:11.686Z,65.50
2017-10-22T11:48:39.791Z,67.10
2017-10-22T11:51:07.900Z,67.00
2017-10-22T11:53:35.993Z,67.10
2017-10-22T11:56:05.219Z,67.10
2017-10-22T11:58:33.691Z,67.90
2017-10-22T12:01:01.783Z,67.50
2017-10-22T12:05:59.215Z,67.20
2017-10-22T12:08:27.310Z,68.20
2017-10-22T12:10:55.387Z,67.90
2017-10-22T12:13:23.495Z,67.30
2017-10-22T12:15:51.572Z,67.40
2017-10-22T12:18:19.682Z,66.70
2017-10-22T12:20:47.764Z,68.20
2017-10-22T12:23:15.839Z,67.60
2017-10-22T12:25:45.482Z,68.90
2017-10-22T12:28:14.326Z,70.60
2017-10-22T12:30:43.171Z,69.80
2017-10-22T12:33:11.267Z,66.60
2017-10-22T12:35:39.343Z,66.70
2017-10-22T12:38:07.442Z,64.60
2017-10-22T12:40:35.519Z,67.10
2017-10-22T12:43:03.619Z,66.60
2017-10-22T12:45:32.468Z,68.70
2017-10-22T12:48:00.574Z,69.20
2017-10-22T12:50:28.646Z,69.90
2017-10-22T12:52:57.527Z,70.00
2017-10-22T12:55:25.604Z,71.00
2017-10-22T12:57:53.683Z,70.50
2017-10-22T13:00:23.292Z,70.20
2017-10-22T13:02:52.139Z,71.60
2017-10-22T13:05:20.239Z,71.30
2017-10-22T13:07:48.329Z,71.90
2017-10-22T13:10:17.922Z,71.30
2017-10-22T13:12:46.767Z,69.70
2017-10-22T13:15:15.632Z,70.40
2017-10-22T13:17:44.479Z,71.70
2017-10-22T13:20:13.715Z,71.00
2017-10-22T13:22:42.551Z,70.50
2017-10-22T13:25:10.647Z,71.10
2017-10-22T13:27:38.742Z,70.60
2017-10-22T13:30:07.600Z,72.60
2017-10-22T13:32:36.451Z,72.00
2017-10-22T13:35:04.548Z,70.10
2017-10-22T13:40:01.994Z,69.30
2017-10-22T13:42:30.466Z,70.80
2017-10-22T13:44:58.563Z,70.60
2017-10-22T13:47:26.634Z,69.20
2017-10-22T13:49:54.745Z,69.30
2017-10-22T13:52:22.826Z,70.80
2017-10-22T13:54:50.899Z,70.20
2017-10-22T13:57:18.994Z,67.50
2017-10-22T13:59:47.844Z,71.60
2017-10-22T14:02:15.967Z,70.70
2017-10-22T14:04:45.557Z,66.20
2017-10-22T14:07:14.035Z,68.70
2017-10-22T14:09:42.902Z,67.40
2017-10-22T14:12:12.486Z,68.70
2017-10-22T14:14:40.576Z,71.50
2017-10-22T14:17:08.657Z,68.90
2017-10-22T14:19:36.728Z,69.30
2017-10-22T14:22:04.829Z,67.00
2017-10-22T14:24:33.672Z,70.90
2017-10-22T14:27:01.775Z,69.60
2017-10-22T14:29:29.858Z,67.80
2017-10-22T14:31:57.944Z,66.10
2017-10-22T14:34:26.807Z,67.80
2017-10-22T14:36:54.898Z,69.30
2017-10-22T14:39:23.736Z,66.70
2017-10-22T14:41:51.845Z,68.20
2017-10-22T14:44:19.919Z,67.50
2017-10-22T14:46:48.755Z,68.20
2017-10-22T14:49:16.855Z,68.20
2017-10-22T14:51:44.938Z,70.30
2017-10-22T14:54:13.079Z,67.20
2017-10-22T14:56:41.153Z,67.10
2017-10-22T14:59:10.731Z,69.50
2017-10-22T15:01:39.591Z,67.50
2017-10-22T15:04:07.757Z,69.00
2017-10-22T15:06:35.832Z,67.70
2017-10-22T15:09:03.934Z,67.20
2017-10-22T15:11:32.055Z,66.70
2017-10-22T15:14:00.143Z,65.80
2017-10-22T15:16:28.219Z,65.10
2017-10-22T15:18:56.323Z,65.70
2017-10-22T15:21:24.795Z,65.80
2017-10-22T15:23:53.663Z,67.80
2017-10-22T15:28:51.866Z,65.30
2017-10-22T15:31:19.943Z,62.90
2017-10-22T15:33:48.783Z,64.70
2017-10-22T15:36:16.882Z,63.20
2017-10-22T15:38:45.350Z,66.60
2017-10-22T15:41:13.432Z,65.80
2017-10-22T15:43:41.528Z,70.10
2017-10-22T15:46:09.599Z,68.90
2017-10-22T15:48:37.701Z,69.50
2017-10-22T15:51:05.779Z,70.00
2017-10-22T15:53:34.276Z,70.00
2017-10-22T15:56:03.483Z,70.60
2017-10-22T15:58:31.653Z,71.90
2017-10-22T16:00:59.699Z,72.60
2017-10-22T16:03:27.796Z,72.20
2017-10-22T16:05:56.267Z,70.90
2017-10-22T16:08:24.379Z,71.90
2017-10-22T16:10:52.452Z,71.00
2017-10-22T16:13:20.526Z,72.70
2017-10-22T16:18:19.111Z,73.50
2017-10-22T16:20:47.202Z,74.00
2017-10-22T16:23:16.799Z,73.80
2017-10-22T16:25:45.274Z,74.10
2017-10-22T16:28:13.374Z,73.20
2017-10-22T16:30:41.503Z,74.40
2017-10-22T16:33:09.966Z,75.60
2017-10-22T16:35:38.047Z,74.10
2017-10-22T16:38:06.139Z,73.60
2017-10-22T16:40:34.216Z,75.40
2017-10-22T16:43:02.294Z,76.40
2017-10-22T16:45:30.415Z,75.90
2017-10-22T16:47:58.868Z,75.70
2017-10-22T16:50:27.336Z,75.30
2017-10-22T16:52:55.427Z,75.30
2017-10-22T16:55:24.258Z,75.80
2017-10-22T16:57:52.352Z,74.40
2017-10-22T17:00:20.423Z,74.40
2017-10-22T17:02:48.530Z,74.70
2017-10-22T17:07:46.334Z,75.20
2017-10-22T17:10:15.235Z,75.70
2017-10-22T17:12:43.703Z,75.20
2017-10-22T17:15:11.788Z,75.50
2017-10-22T17:17:39.885Z,75.80
2017-10-22T17:20:08.353Z,76.70
2017-10-22T17:22:37.223Z,76.50
2017-10-22T17:25:06.077Z,77.10
2017-10-22T17:27:34.574Z,75.60
2017-10-22T17:30:02.640Z,76.00
2017-10-22T17:32:30.711Z,75.80
2017-10-22T17:34:58.802Z,75.70
2017-10-22T17:37:27.670Z,76.40
2017-10-22T17:39:56.144Z,76.30
2017-10-22T17:42:24.210Z,75.00
2017-10-22T17:44:53.071Z,75.20
2017-10-22T17:47:21.171Z,75.60
2017-10-22T17:49:49.320Z,76.00
2017-10-22T17:52:17.427Z,76.60
2017-10-22T17:54:45.878Z,76.10
2017-10-22T17:57:14.366Z,77.10
2017-10-22T17:59:42.442Z,78.00
2017-10-22T18:02:10.591Z,77.50
2017-10-22T18:04:38.686Z,79.80
2017-10-22T18:07:07.603Z,80.40
2017-10-22T18:09:36.107Z,80.60
2017-10-22T18:12:04.945Z,81.80
2017-10-22T18:14:33.043Z,81.20
2017-10-22T18:17:01.539Z,81.00
2017-10-22T18:19:29.614Z,81.90
2017-10-22T18:21:58.464Z,84.10
2017-10-22T18:24:26.573Z,84.10
2017-10-22T18:26:54.650Z,82.90
2017-10-22T18:29:23.522Z,82.70
2017-10-22T18:31:53.154Z,83.10
2017-10-22T18:34:21.218Z,81.30
2017-10-22T18:36:49.345Z,79.30
2017-10-22T18:39:17.418Z,80.10
2017-10-22T18:41:45.568Z,81.20
2017-10-22T18:44:14.058Z,81.70
2017-10-22T18:46:44.470Z,81.00
2017-10-22T18:49:13.332Z,79.60
2017-10-22T18:51:41.419Z,79.30
2017-10-22T18:54:11.027Z,80.50
2017-10-22T18:56:39.229Z,81.80
2017-10-22T18:59:08.811Z,81.40
2017-10-22T19:01:37.676Z,83.10
2017-10-22T19:04:06.744Z,82.50
2017-10-22T19:06:35.583Z,81.30
2017-10-22T19:09:03.671Z,81.80
2017-10-22T19:11:31.767Z,81.00
2017-10-22T19:14:00.615Z,81.70
2017-10-22T19:21:27.390Z,81.00
2017-10-22T19:31:23.580Z,80.40
2017-10-22T19:33:52.415Z,81.70
2017-10-22T19:36:20.497Z,80.70
2017-10-22T19:38:48.590Z,81.10
2017-10-22T19:41:16.673Z,81.50
2017-10-22T19:43:44.754Z,82.40
2017-10-22T19:46:13.619Z,86.00
2017-10-22T19:48:41.693Z,84.50
2017-10-22T19:51:09.821Z,81.00
2017-10-22T19:53:38.632Z,82.10
2017-10-22T19:56:06.735Z,81.20
2017-10-22T19:58:34.810Z,79.20
2017-10-22T20:01:02.903Z,79.80
2017-10-22T20:03:30.976Z,79.50
2017-10-22T20:05:59.840Z,78.90
2017-10-22T20:08:27.925Z,76.10
2017-10-22T20:10:56.036Z,79.10
2017-10-22T20:13:24.098Z,77.00
2017-10-22T20:15:52.191Z,77.10
2017-10-22T20:18:20.302Z,76.90
2017-10-22T20:20:48.403Z,80.10
2017-10-22T20:23:16.906Z,79.30
2017-10-22T20:25:45.379Z,80.80
2017-10-22T20:28:14.198Z,75.80
2017-10-22T20:30:43.222Z,75.10
2017-10-22T20:33:11.678Z,76.80
2017-10-22T20:35:40.910Z,77.00
2017-10-22T20:38:08.987Z,76.40
2017-10-22T20:40:37.160Z,76.30
2017-10-22T20:43:05.243Z,75.30
2017-10-22T20:45:33.336Z,76.40
2017-10-22T20:48:01.834Z,76.50
2017-10-22T20:50:29.908Z,75.00
2017-10-22T20:52:59.158Z,75.50
2017-10-22T20:55:27.232Z,75.00
2017-10-22T20:57:55.330Z,75.50
2017-10-22T21:00:23.443Z,75.00
2017-10-22T21:02:52.276Z,76.50
2017-10-22T21:05:20.356Z,75.10
2017-10-22T21:07:49.215Z,76.30
2017-10-22T21:10:17.286Z,75.60
2017-10-22T21:12:45.402Z,76.20
2017-10-22T21:15:13.462Z,77.50
2017-10-22T21:17:41.547Z,74.50
2017-10-22T21:20:10.040Z,75.70
2017-10-22T21:25:07.491Z,74.30
2017-10-22T21:27:36.343Z,75.30
2017-10-22T21:30:04.423Z,75.00
2017-10-22T21:32:32.515Z,75.90
2017-10-22T21:35:01.939Z,75.70
2017-10-22T21:37:30.041Z,75.10
2017-10-22T21:42:27.479Z,74.30
2017-10-22T21:44:55.577Z,74.00
2017-10-22T21:47:23.644Z,74.20
2017-10-22T21:49:51.726Z,73.80
2017-10-22T21:52:19.819Z,73.90
2017-10-22T21:54:47.928Z,73.60
2017-10-22T21:59:45.368Z,72.40
2017-10-22T22:02:14.307Z,73.20
2017-10-22T22:04:42.413Z,74.30
2017-10-22T22:07:11.671Z,74.40
2017-10-22T22:09:40.510Z,74.90
2017-10-22T22:12:09.748Z,74.30
2017-10-22T22:14:37.828Z,72.10
2017-10-22T22:17:06.709Z,75.10
2017-10-22T22:19:34.774Z,71.90
2017-10-22T22:22:02.846Z,72.00
2017-10-22T22:24:30.948Z,74.10
2017-10-22T22:26:59.782Z,74.30
2017-10-22T22:29:27.880Z,75.00
2017-10-22T22:31:55.964Z,76.70
2017-10-22T22:34:25.572Z,70.10
2017-10-22T22:39:23.009Z,75.20
2017-10-22T22:41:51.855Z,71.80
2017-10-22T22:44:19.936Z,70.70
2017-10-22T22:46:48.035Z,68.40
2017-10-22T22:49:16.110Z,67.10
2017-10-22T22:51:44.210Z,65.20
2017-10-22T22:54:12.314Z,67.10
2017-10-22T22:56:40.421Z,66.40
2017-10-22T23:01:38.999Z,65.00
2017-10-22T23:04:07.075Z,67.00
2017-10-22T23:06:35.169Z,69.80
2017-10-22T23:09:04.036Z,69.30
2017-10-22T23:11:32.116Z,66.80
2017-10-22T23:16:29.559Z,66.90
2017-10-22T23:18:58.426Z,69.20
2017-10-22T23:23:55.852Z,70.60
2017-10-22T23:26:24.712Z,72.90
2017-10-22T23:28:53.204Z,72.70
2017-10-22T23:33:50.643Z,71.80
2017-10-22T23:36:18.730Z,69.80
2017-10-22T23:38:46.822Z,72.60
2017-10-22T23:41:16.413Z,72.80
2017-10-22T23:43:45.277Z,73.80
2017-10-22T23:46:13.354Z,74.40
2017-10-22T23:48:41.428Z,77.50
2017-10-22T23:51:09.544Z,76.20
2017-10-22T23:56:06.978Z,77.30
2017-10-22T23:58:35.060Z,74.70
